createdAt,value
2022-08-09T00:00:19.554Z,99455.63
2022-08-09T00:02:49.336Z,99456.09
2022-08-09T00:06:18.957Z,99458.50
2022-08-09T00:08:02.404Z,99458.13
2022-08-09T00:10:28.578Z,99461.00
2022-08-09T00:12:54.726Z,99456.22
2022-08-09T00:15:26.538Z,99456.81
2022-08-09T00:18:11.588Z,99460.53
2022-08-09T00:20:38.449Z,99465.44
2022-08-09T00:23:56.554Z,99461.66
2022-08-09T00:25:54.615Z,99459.59
2022-08-09T00:28:22.363Z,99461.47
2022-08-09T00:30:52.508Z,99460.84
2022-08-09T00:33:18.660Z,99452.53
2022-08-09T00:35:59.006Z,99449.81
2022-08-09T00:38:25.156Z,99450.38
2022-08-09T00:40:53.126Z,99445.41
2022-08-09T00:44:15.502Z,99438.06
2022-08-09T00:46:05.746Z,99441.22
2022-08-09T00:48:32.975Z,99456.94
2022-08-09T00:50:59.213Z,99455.44
2022-08-09T00:53:25.361Z,99460.34
2022-08-09T00:56:04.842Z,99455.81
2022-08-09T00:58:35.686Z,99455.66
2022-08-09T01:01:02.644Z,99459.41
2022-08-09T01:03:29.599Z,99452.75
2022-08-09T01:05:58.865Z,99460.19
2022-08-09T01:08:30.087Z,99464.28
2022-08-09T01:10:56.406Z,99453.28
2022-08-09T01:13:22.885Z,99461.34
2022-08-09T01:15:52.495Z,99458.66
2022-08-09T01:18:18.963Z,99459.53
2022-08-09T01:20:56.164Z,99460.81
2022-08-09T01:24:02.382Z,99462.00
2022-08-09T01:26:08.428Z,99460.34
2022-08-09T01:28:34.550Z,99455.63
2022-08-09T01:31:00.677Z,99460.91
2022-08-09T01:33:26.832Z,99454.91
2022-08-09T01:35:52.962Z,99457.06
2022-08-09T01:38:19.621Z,99461.50
2022-08-09T01:40:53.004Z,99466.66
2022-08-09T01:43:29.017Z,99454.09
2022-08-09T01:45:59.873Z,99469.72
2022-08-09T01:48:29.640Z,99468.06
2022-08-09T01:50:57.636Z,99466.72
2022-08-09T01:53:29.257Z,99466.25
2022-08-09T01:56:07.826Z,99466.88
2022-08-09T01:58:34.420Z,99467.63
2022-08-09T02:01:00.561Z,99466.63
2022-08-09T02:03:26.712Z,99465.16
2022-08-09T02:06:06.273Z,99461.72
2022-08-09T02:08:40.229Z,99459.97
2022-08-09T02:11:19.361Z,99464.31
2022-08-09T02:13:55.273Z,99466.25
2022-08-09T02:16:33.869Z,99460.00
2022-08-09T02:19:19.081Z,99462.41
2022-08-09T02:21:46.503Z,99465.53
2022-08-09T02:24:12.720Z,99463.41
2022-08-09T02:26:52.714Z,99457.06
2022-08-09T02:29:18.861Z,99459.91
2022-08-09T02:31:47.113Z,99460.00
2022-08-09T02:34:40.779Z,99460.66
2022-08-09T02:36:59.381Z,99465.47
2022-08-09T02:39:34.063Z,99464.34
2022-08-09T02:42:08.285Z,99462.47
2022-08-09T02:44:34.438Z,99458.34
2022-08-09T02:47:02.080Z,99449.81
2022-08-09T02:49:38.470Z,99452.50
2022-08-09T02:52:07.176Z,99456.22
2022-08-09T02:54:33.997Z,99455.03
2022-08-09T02:57:01.102Z,99453.06
2022-08-09T02:59:39.947Z,99452.84
2022-08-09T03:02:26.078Z,99456.84
2022-08-09T03:04:53.445Z,99454.97
2022-08-09T03:07:19.829Z,99455.72
2022-08-09T03:09:54.375Z,99455.09
2022-08-09T03:12:23.004Z,99460.16
2022-08-09T03:14:49.138Z,99456.47
2022-08-09T03:17:16.439Z,99458.69
2022-08-09T03:19:52.865Z,99453.59
2022-08-09T03:22:30.304Z,99455.53
2022-08-09T03:25:06.455Z,99457.38
2022-08-09T03:27:45.530Z,99453.41
2022-08-09T03:30:11.984Z,99457.75
2022-08-09T03:32:38.916Z,99459.28
2022-08-09T03:35:24.166Z,99458.28
2022-08-09T03:37:56.413Z,99467.53
2022-08-09T03:40:24.654Z,99466.78
2022-08-09T03:42:50.813Z,99457.81
2022-08-09T03:45:16.971Z,99459.56
2022-08-09T03:48:03.085Z,99464.44
2022-08-09T03:50:31.829Z,99463.72
2022-08-09T03:52:58.225Z,99458.28
2022-08-09T03:55:25.202Z,99459.28
2022-08-09T03:58:03.341Z,99464.91
2022-08-09T04:00:32.747Z,99458.94
2022-08-09T04:02:58.913Z,99456.25
2022-08-09T04:05:27.902Z,99458.28
2022-08-09T04:07:57.291Z,99467.28
2022-08-09T04:10:28.407Z,99459.00
2022-08-09T04:12:56.269Z,99453.28
2022-08-09T04:15:39.157Z,99453.28
2022-08-09T04:18:16.585Z,99457.22
2022-08-09T04:20:45.547Z,99463.34
2022-08-09T04:23:17.029Z,99457.78
2022-08-09T04:25:43.802Z,99462.50
2022-08-09T04:28:09.934Z,99464.34
2022-08-09T04:30:38.685Z,99471.94
2022-08-09T04:33:11.014Z,99461.59
2022-08-09T04:35:37.141Z,99477.66
2022-08-09T04:38:08.432Z,99480.13
2022-08-09T04:40:36.599Z,99485.03
2022-08-09T04:43:03.723Z,99485.03
2022-08-09T04:45:30.632Z,99483.00
2022-08-09T04:48:00.300Z,99485.03
2022-08-09T04:50:34.795Z,99491.47
2022-08-09T04:53:04.104Z,99489.75
2022-08-09T04:55:38.337Z,99491.50
2022-08-09T04:58:09.629Z,99492.53
2022-08-09T05:00:36.177Z,99489.84
2022-08-09T05:03:30.204Z,99492.53
2022-08-09T05:05:52.569Z,99486.63
2022-08-09T05:08:30.809Z,99496.59
2022-08-09T05:10:57.296Z,99493.00
2022-08-09T05:13:27.243Z,99496.69
2022-08-09T05:15:56.726Z,99496.25
2022-08-09T05:18:37.559Z,99503.50
2022-08-09T05:21:09.875Z,99499.91
2022-08-09T05:23:53.534Z,99502.44
2022-08-09T05:26:36.112Z,99506.69
2022-08-09T05:29:04.135Z,99511.56
2022-08-09T05:31:46.353Z,99509.53
2022-08-09T05:34:17.081Z,99512.03
2022-08-09T05:36:43.662Z,99511.66
2022-08-09T05:39:13.090Z,99502.19
2022-08-09T05:41:39.265Z,99508.47
2022-08-09T05:44:06.774Z,99510.13
2022-08-09T05:46:35.066Z,99512.72
2022-08-09T05:49:01.214Z,99509.00
2022-08-09T05:51:42.723Z,99507.25
2022-08-09T05:54:12.572Z,99502.38
2022-08-09T05:56:54.519Z,99504.13
2022-08-09T05:59:21.709Z,99509.91
2022-08-09T06:01:47.837Z,99511.88
2022-08-09T06:04:14.568Z,99507.59
2022-08-09T06:06:50.156Z,99509.53
2022-08-09T06:09:40.548Z,99512.09
2022-08-09T06:12:04.150Z,99507.63
2022-08-09T06:14:30.434Z,99508.94
2022-08-09T06:16:57.229Z,99512.44
2022-08-09T06:19:24.269Z,99510.34
2022-08-09T06:21:58.915Z,99508.97
2022-08-09T06:24:25.272Z,99516.91
2022-08-09T06:26:51.394Z,99512.00
2022-08-09T06:29:17.693Z,99514.13
2022-08-09T06:32:17.246Z,99512.91
2022-08-09T06:34:34.041Z,99512.13
2022-08-09T06:37:00.385Z,99520.22
2022-08-09T06:39:38.802Z,99520.94
2022-08-09T06:42:12.732Z,99515.41
2022-08-09T06:44:38.865Z,99511.97
2022-08-09T06:47:05.010Z,99514.69
2022-08-09T06:50:12.202Z,99522.63
2022-08-09T06:52:23.713Z,99523.69
2022-08-09T06:54:51.473Z,99523.72
2022-08-09T06:57:20.273Z,99528.91
2022-08-09T07:00:54.357Z,99520.25
2022-08-09T07:02:52.622Z,99521.97
2022-08-09T07:05:18.907Z,99521.84
2022-08-09T07:08:00.247Z,99529.72
2022-08-09T07:10:31.191Z,99527.50
2022-08-09T07:12:58.505Z,99527.53
2022-08-09T07:16:34.873Z,99531.28
2022-08-09T07:18:10.780Z,99538.16
2022-08-09T07:20:40.497Z,99542.50
2022-08-09T07:23:19.082Z,99537.34
2022-08-09T07:25:46.661Z,99542.16
2022-08-09T07:28:19.151Z,99543.84
2022-08-09T07:30:52.499Z,99540.38
2022-08-09T07:33:18.630Z,99543.28
2022-08-09T07:35:53.454Z,99538.69
2022-08-09T07:38:20.613Z,99543.72
2022-08-09T07:41:10.082Z,99549.44
2022-08-09T07:43:49.587Z,99545.34
2022-08-09T07:46:21.707Z,99550.34
2022-08-09T07:48:58.966Z,99548.38
2022-08-09T07:52:05.616Z,99543.84
2022-08-09T07:54:11.962Z,99545.88
2022-08-09T07:56:49.323Z,99547.31
2022-08-09T07:59:33.786Z,99541.16
2022-08-09T08:02:01.154Z,99535.75
2022-08-09T08:04:31.448Z,99536.16
2022-08-09T08:07:09.176Z,99539.88
2022-08-09T08:09:51.492Z,99545.72
2022-08-09T08:12:27.992Z,99547.59
2022-08-09T08:15:00.601Z,99542.25
2022-08-09T08:17:53.089Z,99547.19
2022-08-09T08:20:13.722Z,99548.47
2022-08-09T08:22:40.146Z,99546.78
2022-08-09T08:25:09.363Z,99556.94
2022-08-09T08:27:40.735Z,99557.97
2022-08-09T08:30:07.105Z,99563.78
2022-08-09T08:32:37.466Z,99560.66
2022-08-09T08:35:19.163Z,99552.78
2022-08-09T08:37:59.395Z,99566.91
2022-08-09T08:40:29.648Z,99555.91
2022-08-09T08:42:58.341Z,99555.69
2022-08-09T08:45:37.289Z,99554.22
2022-08-09T08:48:05.316Z,99549.16
2022-08-09T08:50:31.529Z,99554.16
2022-08-09T08:53:00.545Z,99553.53
2022-08-09T08:55:27.083Z,99558.31
2022-08-09T08:57:57.165Z,99560.81
2022-08-09T09:00:27.805Z,99569.53
2022-08-09T09:02:59.418Z,99566.84
2022-08-09T09:05:57.562Z,99566.63
2022-08-09T09:08:30.992Z,99562.25
2022-08-09T09:10:57.869Z,99570.72
2022-08-09T09:13:24.040Z,99577.38
2022-08-09T09:16:00.963Z,99568.84
2022-08-09T09:18:29.249Z,99575.41
2022-08-09T09:20:56.033Z,99574.38
2022-08-09T09:23:24.443Z,99583.75
2022-08-09T09:26:12.352Z,99571.53
2022-08-09T09:28:39.161Z,99579.59
2022-08-09T09:32:04.440Z,99575.16
2022-08-09T09:34:11.168Z,99582.03
2022-08-09T09:36:46.710Z,99579.50
2022-08-09T09:39:20.492Z,99585.69
2022-08-09T09:41:49.816Z,99583.19
2022-08-09T09:44:25.402Z,99569.69
2022-08-09T09:46:52.781Z,99570.78
2022-08-09T09:49:18.978Z,99563.00
2022-08-09T09:51:58.550Z,99568.34
2022-08-09T09:54:26.586Z,99571.56
2022-08-09T09:58:02.923Z,99573.59
2022-08-09T09:59:39.789Z,99575.72
2022-08-09T10:02:05.917Z,99569.00
2022-08-09T10:04:32.098Z,99573.69
2022-08-09T10:06:58.272Z,99579.56
2022-08-09T10:09:29.487Z,99577.09
2022-08-09T10:12:11.593Z,99571.34
2022-08-09T10:14:38.913Z,99583.38
2022-08-09T10:17:24.378Z,99576.38
2022-08-09T10:19:53.042Z,99572.81
2022-08-09T10:22:23.225Z,99579.44
2022-08-09T10:24:55.823Z,99577.44
2022-08-09T10:27:24.823Z,99572.78
2022-08-09T10:30:27.318Z,99588.53
2022-08-09T10:32:42.444Z,99575.88
2022-08-09T10:35:09.693Z,99563.25
2022-08-09T10:37:38.310Z,99568.22
2022-08-09T10:40:05.304Z,99568.06
2022-08-09T10:42:32.240Z,99560.38
2022-08-09T10:45:00.129Z,99567.63
2022-08-09T10:48:19.229Z,99592.16
2022-08-09T10:50:14.970Z,99560.38
2022-08-09T10:52:44.539Z,99577.44
2022-08-09T10:55:11.008Z,99571.81
2022-08-09T10:57:37.832Z,99579.25
2022-08-09T11:00:07.898Z,99578.72
2022-08-09T11:03:15.112Z,99573.88
2022-08-09T11:05:24.911Z,99577.72
2022-08-09T11:07:58.456Z,99582.31
2022-08-09T11:10:29.265Z,99586.31
2022-08-09T11:12:56.757Z,99588.72
2022-08-09T11:15:23.956Z,99584.34
2022-08-09T11:17:53.458Z,99584.91
2022-08-09T11:20:23.515Z,99587.41
2022-08-09T11:22:56.944Z,99576.16
2022-08-09T11:25:26.057Z,99571.25
2022-08-09T11:28:08.017Z,99576.75
2022-08-09T11:30:48.377Z,99558.41
2022-08-09T11:33:15.452Z,99561.09
2022-08-09T11:35:49.671Z,99564.91
2022-08-09T11:38:16.630Z,99567.22
2022-08-09T11:40:43.259Z,99567.59
2022-08-09T11:43:09.957Z,99555.09
2022-08-09T11:45:42.688Z,99551.09
2022-08-09T11:48:17.509Z,99548.66
2022-08-09T11:50:55.068Z,99554.06
2022-08-09T11:54:01.210Z,99553.22
2022-08-09T11:56:24.062Z,99545.56
2022-08-09T11:59:10.582Z,99547.34
2022-08-09T12:02:17.977Z,99540.47
2022-08-09T12:04:28.597Z,99546.75
2022-08-09T12:06:55.673Z,99544.94
2022-08-09T12:09:22.361Z,99545.06
2022-08-09T12:12:03.327Z,99551.22
2022-08-09T12:14:41.025Z,99544.13
2022-08-09T12:17:27.649Z,99545.69
2022-08-09T12:20:01.090Z,99547.84
2022-08-09T12:22:27.233Z,99544.66
2022-08-09T12:24:55.273Z,99540.13
2022-08-09T12:29:14.243Z,99541.47
2022-08-09T12:30:36.814Z,99533.22
2022-08-09T12:32:56.649Z,99534.19
2022-08-09T12:35:23.818Z,99526.88
2022-08-09T12:37:52.497Z,99535.16
2022-08-09T12:40:20.110Z,99527.22
2022-08-09T12:42:46.234Z,99540.88
2022-08-09T12:45:34.704Z,99523.16
2022-08-09T12:48:02.551Z,99520.13
2022-08-09T12:50:28.745Z,99521.84
2022-08-09T12:53:08.585Z,99515.97
2022-08-09T12:56:15.908Z,99505.84
2022-08-09T12:58:28.356Z,99512.50
2022-08-09T13:00:54.842Z,99504.50
2022-08-09T13:03:28.365Z,99510.09
2022-08-09T13:06:14.433Z,99514.88
2022-08-09T13:08:43.568Z,99508.31
2022-08-09T13:11:25.870Z,99505.22
2022-08-09T13:14:41.855Z,99501.22
2022-08-09T13:16:38.662Z,99506.19
2022-08-09T13:19:11.042Z,99498.41
2022-08-09T13:22:36.147Z,99498.50
2022-08-09T13:24:53.246Z,99495.63
2022-08-09T13:27:09.732Z,99490.78
2022-08-09T13:30:03.020Z,99498.84
2022-08-09T13:32:27.691Z,99495.28
2022-08-09T13:34:55.253Z,99483.59
2022-08-09T13:37:50.911Z,99487.63
2022-08-09T13:41:50.416Z,99480.47
2022-08-09T13:42:53.690Z,99487.91
2022-08-09T13:45:19.990Z,99482.13
2022-08-09T13:47:51.236Z,99494.97
2022-08-09T13:50:31.293Z,99487.41
2022-08-09T13:52:58.059Z,99488.78
2022-08-09T13:55:24.197Z,99474.31
2022-08-09T13:57:56.316Z,99469.94
2022-08-09T14:00:28.399Z,99476.09
2022-08-09T14:03:17.116Z,99474.44
2022-08-09T14:05:57.176Z,99462.56
2022-08-09T14:08:28.342Z,99464.16
2022-08-09T14:10:54.639Z,99465.13
2022-08-09T14:13:21.677Z,99477.34
2022-08-09T14:16:09.189Z,99466.72
2022-08-09T14:18:37.386Z,99476.75
2022-08-09T14:21:03.736Z,99478.16
2022-08-09T14:23:40.184Z,99469.44
2022-08-09T14:26:12.978Z,99475.78
2022-08-09T14:28:39.110Z,99466.25
2022-08-09T14:31:06.662Z,99456.25
2022-08-09T14:33:38.053Z,99470.91
2022-08-09T14:36:20.244Z,99471.22
2022-08-09T14:38:47.237Z,99462.25
2022-08-09T14:41:26.635Z,99468.66
2022-08-09T14:44:02.843Z,99469.50
2022-08-09T14:46:51.324Z,99461.19
2022-08-09T14:49:16.259Z,99466.56
2022-08-09T14:51:42.814Z,99471.00
2022-08-09T14:54:08.994Z,99458.06
2022-08-09T14:56:35.150Z,99473.00
2022-08-09T14:59:21.262Z,99471.41
2022-08-09T15:01:47.788Z,99476.84
2022-08-09T15:04:15.567Z,99467.53
2022-08-09T15:06:41.706Z,99468.16
2022-08-09T15:09:15.914Z,99472.00
2022-08-09T15:12:02.027Z,99465.78
2022-08-09T15:14:33.859Z,99468.25
2022-08-09T15:17:00.325Z,99465.78
2022-08-09T15:19:30.861Z,99468.47
2022-08-09T15:22:02.864Z,99457.19
2022-08-09T15:24:29.208Z,99464.94
2022-08-09T15:26:55.347Z,99456.84
2022-08-09T15:30:48.766Z,99455.50
2022-08-09T15:32:39.090Z,99451.44
2022-08-09T15:34:53.773Z,99450.84
2022-08-09T15:37:20.254Z,99466.78
2022-08-09T15:39:54.667Z,99459.94
2022-08-09T15:42:21.890Z,99450.25
2022-08-09T15:44:48.148Z,99449.28
2022-08-09T15:47:21.763Z,99451.16
2022-08-09T15:50:04.115Z,99455.72
2022-08-09T15:52:31.718Z,99446.59
2022-08-09T15:54:58.074Z,99459.13
2022-08-09T15:57:35.195Z,99447.31
2022-08-09T16:00:02.444Z,99454.28
2022-08-09T16:02:28.584Z,99445.69
2022-08-09T16:04:55.190Z,99435.03
2022-08-09T16:07:21.344Z,99442.16
2022-08-09T16:09:57.705Z,99438.44
2022-08-09T16:12:30.832Z,99446.44
2022-08-09T16:14:57.368Z,99450.75
2022-08-09T16:17:23.574Z,99445.28
2022-08-09T16:20:04.855Z,99430.88
2022-08-09T16:22:35.324Z,99433.63
2022-08-09T16:25:01.767Z,99437.22
2022-08-09T16:27:29.930Z,99432.16
2022-08-09T16:30:00.708Z,99437.03
2022-08-09T16:32:34.137Z,99421.53
2022-08-09T16:35:02.353Z,99433.66
2022-08-09T16:37:55.089Z,99439.56
2022-08-09T16:40:29.839Z,99439.38
2022-08-09T16:43:02.346Z,99433.81
2022-08-09T16:45:28.591Z,99427.38
2022-08-09T16:48:40.666Z,99420.28
2022-08-09T16:50:40.893Z,99431.53
2022-08-09T16:53:16.090Z,99428.63
2022-08-09T16:55:57.842Z,99427.69
2022-08-09T16:58:26.602Z,99443.94
2022-08-09T17:00:52.822Z,99427.94
2022-08-09T17:03:22.955Z,99420.41
2022-08-09T17:06:07.949Z,99421.59
2022-08-09T17:08:44.165Z,99436.69
2022-08-09T17:11:24.642Z,99422.41
2022-08-09T17:14:01.747Z,99432.88
2022-08-09T17:16:28.389Z,99429.09
2022-08-09T17:18:54.561Z,99437.72
2022-08-09T17:21:21.442Z,99434.47
2022-08-09T17:24:20.695Z,99438.66
2022-08-09T17:26:38.360Z,99436.75
2022-08-09T17:29:04.766Z,99438.44
2022-08-09T17:31:40.225Z,99427.63
2022-08-09T17:34:06.585Z,99442.16
2022-08-09T17:36:53.525Z,99440.09
2022-08-09T17:39:20.032Z,99446.34
2022-08-09T17:41:51.324Z,99447.38
2022-08-09T17:44:47.256Z,99443.63
2022-08-09T17:47:05.397Z,99440.59
2022-08-09T17:49:36.690Z,99436.66
2022-08-09T17:52:22.304Z,99435.66
2022-08-09T17:54:48.778Z,99444.63
2022-08-09T17:57:20.552Z,99436.38
2022-08-09T18:00:05.801Z,99438.69
2022-08-09T18:02:34.089Z,99443.41
2022-08-09T18:05:00.339Z,99441.56
2022-08-09T18:07:26.755Z,99448.59
2022-08-09T18:10:04.909Z,99447.69
2022-08-09T18:12:40.522Z,99446.72
2022-08-09T18:15:17.593Z,99449.03
2022-08-09T18:18:03.714Z,99442.75
2022-08-09T18:20:59.400Z,99445.16
2022-08-09T18:24:10.591Z,99453.44
2022-08-09T18:26:02.153Z,99458.63
2022-08-09T18:30:38.672Z,99456.78
2022-08-09T18:31:15.070Z,99463.63
2022-08-09T18:33:53.061Z,99471.25
2022-08-09T18:36:25.983Z,99461.41
2022-08-09T18:39:02.562Z,99462.78
2022-08-09T18:41:29.121Z,99459.63
2022-08-09T18:44:03.334Z,99469.16
2022-08-09T18:46:49.011Z,99475.00
2022-08-09T18:49:16.077Z,99473.88
2022-08-09T18:51:57.678Z,99469.53
2022-08-09T18:54:28.395Z,99478.28
2022-08-09T18:56:56.161Z,99478.94
2022-08-09T18:59:37.237Z,99483.03
2022-08-09T19:02:04.007Z,99476.81
2022-08-09T19:04:34.665Z,99485.22
2022-08-09T19:07:01.432Z,99488.94
2022-08-09T19:10:13.221Z,99488.72
2022-08-09T19:12:20.989Z,99496.91
2022-08-09T19:14:48.030Z,99498.91
2022-08-09T19:17:14.170Z,99489.47
2022-08-09T19:19:41.427Z,99488.13
2022-08-09T19:22:08.218Z,99497.69
2022-08-09T19:25:07.208Z,99497.75
2022-08-09T19:27:22.028Z,99501.13
2022-08-09T19:30:21.348Z,99498.56
2022-08-09T19:32:34.703Z,99497.16
2022-08-09T19:35:02.973Z,99494.94
2022-08-09T19:37:29.106Z,99496.50
2022-08-09T19:40:07.485Z,99496.03
2022-08-09T19:42:33.920Z,99503.38
2022-08-09T19:45:00.140Z,99499.84
2022-08-09T19:47:27.107Z,99510.22
2022-08-09T19:50:09.090Z,99509.88
2022-08-09T19:52:49.607Z,99510.47
2022-08-09T19:55:19.579Z,99509.28
2022-08-09T19:57:52.025Z,99514.31
2022-08-09T20:00:18.395Z,99515.22
2022-08-09T20:04:11.623Z,99508.63
2022-08-09T20:05:30.728Z,99520.75
2022-08-09T20:08:12.377Z,99522.13
2022-08-09T20:10:42.381Z,99525.75
2022-08-09T20:13:10.567Z,99535.38
2022-08-09T20:16:34.222Z,99524.56
2022-08-09T20:18:22.877Z,99525.56
2022-08-09T20:20:55.210Z,99520.75
2022-08-09T20:23:23.084Z,99516.84
2022-08-09T20:25:51.946Z,99516.97
2022-08-09T20:28:27.570Z,99516.66
2022-08-09T20:31:00.213Z,99502.56
2022-08-09T20:33:28.918Z,99514.88
2022-08-09T20:36:05.490Z,99511.63
2022-08-09T20:38:57.141Z,99502.09
2022-08-09T20:41:18.142Z,99496.47
2022-08-09T20:43:58.299Z,99500.25
2022-08-09T20:46:41.621Z,99504.47
2022-08-09T20:49:10.285Z,99505.47
2022-08-09T20:51:41.454Z,99499.91
2022-08-09T20:54:08.095Z,99494.75
2022-08-09T20:56:41.021Z,99499.34
2022-08-09T20:59:07.294Z,99498.91
2022-08-09T21:01:49.907Z,99505.34
2022-08-09T21:05:55.221Z,99498.72
2022-08-09T21:07:12.959Z,99506.88
2022-08-09T21:09:45.523Z,99493.44
2022-08-09T21:14:46.167Z,99493.25
2022-08-09T21:18:22.113Z,99488.06
2022-08-09T21:20:17.938Z,99484.66
2022-08-09T21:22:52.470Z,99483.50
2022-08-09T21:25:20.649Z,99480.00
2022-08-09T21:27:51.332Z,99482.72
2022-08-09T21:30:19.235Z,99486.06
2022-08-09T21:32:48.502Z,99484.25
2022-08-09T21:35:14.622Z,99477.59
2022-08-09T21:37:58.823Z,99488.88
2022-08-09T21:40:30.676Z,99489.72
2022-08-09T21:42:58.757Z,99488.91
2022-08-09T21:45:25.475Z,99486.84
2022-08-09T21:47:51.644Z,99498.34
2022-08-09T21:50:22.960Z,99486.06
2022-08-09T21:53:00.072Z,99496.03
2022-08-09T21:55:29.294Z,99498.81
2022-08-09T21:58:00.328Z,99498.59
2022-08-09T22:00:32.461Z,99493.59
2022-08-09T22:02:59.879Z,99495.50
2022-08-09T22:05:36.858Z,99498.81
2022-08-09T22:08:03.920Z,99498.28
2022-08-09T22:10:30.086Z,99500.72
2022-08-09T22:12:56.325Z,99500.53
2022-08-09T22:15:34.817Z,99505.53
2022-08-09T22:18:01.503Z,99502.44
2022-08-09T22:20:31.205Z,99506.63
2022-08-09T22:22:57.722Z,99499.59
2022-08-09T22:26:06.308Z,99506.63
2022-08-09T22:28:10.012Z,99503.53
2022-08-09T22:30:36.654Z,99505.19
2022-08-09T22:33:02.928Z,99513.44
2022-08-09T22:36:00.700Z,99514.28
2022-08-09T22:38:21.992Z,99510.13
2022-08-09T22:40:57.208Z,99504.75
2022-08-09T22:44:00.688Z,99519.69
2022-08-09T22:48:12.785Z,99515.53
2022-08-09T22:48:59.998Z,99516.53
2022-08-09T22:51:31.678Z,99509.09
2022-08-09T22:54:02.389Z,99521.34
2022-08-09T22:56:33.732Z,99516.38
2022-08-09T22:59:00.422Z,99517.19
2022-08-09T23:01:26.638Z,99524.22
2022-08-09T23:04:04.519Z,99526.28
2022-08-09T23:06:35.989Z,99524.81
2022-08-09T23:09:02.430Z,99523.59
2022-08-09T23:11:28.578Z,99521.72
2022-08-09T23:13:54.714Z,99515.69
2022-08-09T23:16:20.855Z,99518.41
2022-08-09T23:18:46.990Z,99514.25
2022-08-09T23:21:13.126Z,99524.41
2022-08-09T23:23:39.449Z,99508.03
2022-08-09T23:26:05.587Z,99514.25
2022-08-09T23:28:31.744Z,99502.63
2022-08-09T23:30:57.899Z,99507.41
2022-08-09T23:33:24.020Z,99517.13
2022-08-09T23:36:05.946Z,99505.94
2022-08-09T23:38:33.398Z,99516.06
2022-08-09T23:40:59.549Z,99502.78
2022-08-09T23:43:25.679Z,99509.88
2022-08-09T23:45:51.827Z,99503.59
2022-08-09T23:48:17.972Z,99501.09
2022-08-09T23:50:44.122Z,99500.03
2022-08-09T23:53:10.250Z,99490.75
2022-08-09T23:55:38.113Z,99495.69
2022-08-09T23:58:10.747Z,99497.75
